sensor_id;sensor_type;location;lat;lon;timestamp;P1;durP1;ratioP1;P2;durP2;ratioP2
9160;SDS011;4615;51.340;8.288;2023-05-28T00:01:30;8.05;;;5.97;;
9160;SDS011;4615;51.340;8.288;2023-05-28T00:03:57;9.65;;;6.00;;
9160;SDS011;4615;51.340;8.288;2023-05-28T00:06:23;8.13;;;6.05;;
9160;SDS011;4615;51.340;8.288;2023-05-28T00:08:50;9.13;;;6.07;;
9160;SDS011;4615;51.340;8.288;2023-05-28T00:11:16;9.98;;;5.97;;
9160;SDS011;4615;51.340;8.288;2023-05-28T00:13:44;8.38;;;5.65;;
9160;SDS011;4615;51.340;8.288;2023-05-28T00:16:11;6.72;;;5.32;;
9160;SDS011;4615;51.340;8.288;2023-05-28T00:18:39;8.05;;;5.63;;
9160;SDS011;4615;51.340;8.288;2023-05-28T00:21:05;7.30;;;5.27;;
9160;SDS011;4615;51.340;8.288;2023-05-28T00:23:31;7.10;;;5.40;;
9160;SDS011;4615;51.340;8.288;2023-05-28T00:25:58;7.68;;;5.80;;
9160;SDS011;4615;51.340;8.288;2023-05-28T00:28:24;7.38;;;5.50;;
9160;SDS011;4615;51.340;8.288;2023-05-28T00:30:52;9.38;;;5.80;;
9160;SDS011;4615;51.340;8.288;2023-05-28T00:33:18;8.82;;;5.80;;
9160;SDS011;4615;51.340;8.288;2023-05-28T00:35:45;8.47;;;5.60;;
9160;SDS011;4615;51.340;8.288;2023-05-28T00:38:11;8.50;;;5.75;;
9160;SDS011;4615;51.340;8.288;2023-05-28T00:40:41;8.45;;;5.80;;
9160;SDS011;4615;51.340;8.288;2023-05-28T00:43:08;8.63;;;6.20;;
9160;SDS011;4615;51.340;8.288;2023-05-28T00:45:34;8.18;;;5.90;;
9160;SDS011;4615;51.340;8.288;2023-05-28T00:48:02;7.65;;;5.72;;
9160;SDS011;4615;51.340;8.288;2023-05-28T00:50:29;6.87;;;5.73;;
9160;SDS011;4615;51.340;8.288;2023-05-28T00:52:55;7.22;;;5.63;;
9160;SDS011;4615;51.340;8.288;2023-05-28T00:55:21;8.52;;;5.55;;
9160;SDS011;4615;51.340;8.288;2023-05-28T00:57:48;6.93;;;5.32;;
9160;SDS011;4615;51.340;8.288;2023-05-28T01:00:18;10.07;;;5.70;;
9160;SDS011;4615;51.340;8.288;2023-05-28T01:02:45;6.43;;;5.32;;
9160;SDS011;4615;51.340;8.288;2023-05-28T01:05:12;7.88;;;5.38;;
9160;SDS011;4615;51.340;8.288;2023-05-28T01:07:40;6.88;;;5.22;;
9160;SDS011;4615;51.340;8.288;2023-05-28T01:10:07;6.80;;;5.50;;
9160;SDS011;4615;51.340;8.288;2023-05-28T01:12:33;9.73;;;5.80;;
9160;SDS011;4615;51.340;8.288;2023-05-28T01:15:02;10.07;;;6.10;;
9160;SDS011;4615;51.340;8.288;2023-05-28T01:17:29;8.75;;;6.15;;
9160;SDS011;4615;51.340;8.288;2023-05-28T01:19:56;7.53;;;5.70;;
9160;SDS011;4615;51.340;8.288;2023-05-28T01:22:25;8.15;;;5.78;;
9160;SDS011;4615;51.340;8.288;2023-05-28T01:24:55;7.32;;;5.68;;
9160;SDS011;4615;51.340;8.288;2023-05-28T01:27:22;6.50;;;5.35;;
9160;SDS011;4615;51.340;8.288;2023-05-28T01:29:49;7.85;;;5.40;;
9160;SDS011;4615;51.340;8.288;2023-05-28T01:32:15;8.63;;;6.22;;
9160;SDS011;4615;51.340;8.288;2023-05-28T01:34:42;7.85;;;5.95;;
9160;SDS011;4615;51.340;8.288;2023-05-28T01:37:08;7.68;;;5.75;;
9160;SDS011;4615;51.340;8.288;2023-05-28T01:39:37;8.25;;;5.93;;
9160;SDS011;4615;51.340;8.288;2023-05-28T01:42:06;7.68;;;5.80;;
9160;SDS011;4615;51.340;8.288;2023-05-28T01:44:33;7.45;;;5.43;;
9160;SDS011;4615;51.340;8.288;2023-05-28T01:47:00;7.43;;;5.40;;
9160;SDS011;4615;51.340;8.288;2023-05-28T01:49:27;6.50;;;5.75;;
9160;SDS011;4615;51.340;8.288;2023-05-28T01:51:53;7.03;;;5.50;;
9160;SDS011;4615;51.340;8.288;2023-05-28T01:54:21;8.30;;;5.53;;
9160;SDS011;4615;51.340;8.288;2023-05-28T01:56:47;10.23;;;5.90;;
9160;SDS011;4615;51.340;8.288;2023-05-28T01:59:15;8.07;;;5.97;;
9160;SDS011;4615;51.340;8.288;2023-05-28T02:01:42;7.95;;;6.00;;
9160;SDS011;4615;51.340;8.288;2023-05-28T02:04:08;6.95;;;5.55;;
9160;SDS011;4615;51.340;8.288;2023-05-28T02:06:35;7.40;;;5.55;;
9160;SDS011;4615;51.340;8.288;2023-05-28T02:09:01;7.32;;;5.38;;
9160;SDS011;4615;51.340;8.288;2023-05-28T02:11:28;8.18;;;5.57;;
9160;SDS011;4615;51.340;8.288;2023-05-28T02:13:54;7.07;;;5.50;;
9160;SDS011;4615;51.340;8.288;2023-05-28T02:16:22;8.75;;;5.60;;
9160;SDS011;4615;51.340;8.288;2023-05-28T02:18:50;8.18;;;5.75;;
9160;SDS011;4615;51.340;8.288;2023-05-28T02:21:16;8.10;;;5.75;;
9160;SDS011;4615;51.340;8.288;2023-05-28T02:23:44;6.43;;;5.60;;
9160;SDS011;4615;51.340;8.288;2023-05-28T02:26:10;8.27;;;5.85;;
9160;SDS011;4615;51.340;8.288;2023-05-28T02:28:37;6.80;;;5.90;;
9160;SDS011;4615;51.340;8.288;2023-05-28T02:31:03;7.45;;;5.90;;
9160;SDS011;4615;51.340;8.288;2023-05-28T02:33:31;7.47;;;5.70;;
9160;SDS011;4615;51.340;8.288;2023-05-28T02:35:58;9.75;;;6.32;;
9160;SDS011;4615;51.340;8.288;2023-05-28T02:38:24;8.50;;;5.87;;
9160;SDS011;4615;51.340;8.288;2023-05-28T02:40:51;8.70;;;6.10;;
9160;SDS011;4615;51.340;8.288;2023-05-28T02:43:17;8.55;;;6.00;;
9160;SDS011;4615;51.340;8.288;2023-05-28T02:45:44;7.57;;;4.95;;
9160;SDS011;4615;51.340;8.288;2023-05-28T02:48:10;8.15;;;5.97;;
9160;SDS011;4615;51.340;8.288;2023-05-28T02:50:38;8.23;;;5.77;;
9160;SDS011;4615;51.340;8.288;2023-05-28T02:53:04;6.83;;;5.63;;
9160;SDS011;4615;51.340;8.288;2023-05-28T02:55:30;8.20;;;5.80;;
9160;SDS011;4615;51.340;8.288;2023-05-28T02:57:57;7.50;;;5.70;;
9160;SDS011;4615;51.340;8.288;2023-05-28T03:00:23;9.20;;;5.63;;
9160;SDS011;4615;51.340;8.288;2023-05-28T03:02:50;8.17;;;5.47;;
9160;SDS011;4615;51.340;8.288;2023-05-28T03:05:17;7.22;;;5.68;;
9160;SDS011;4615;51.340;8.288;2023-05-28T03:07:44;7.53;;;5.85;;
9160;SDS011;4615;51.340;8.288;2023-05-28T03:10:11;8.02;;;5.65;;
9160;SDS011;4615;51.340;8.288;2023-05-28T03:12:37;7.72;;;5.50;;
9160;SDS011;4615;51.340;8.288;2023-05-28T03:15:04;8.70;;;6.20;;
9160;SDS011;4615;51.340;8.288;2023-05-28T03:17:30;7.65;;;5.82;;
9160;SDS011;4615;51.340;8.288;2023-05-28T03:19:57;7.30;;;5.53;;
9160;SDS011;4615;51.340;8.288;2023-05-28T03:22:23;7.82;;;5.28;;
9160;SDS011;4615;51.340;8.288;2023-05-28T03:24:51;6.93;;;5.33;;
9160;SDS011;4615;51.340;8.288;2023-05-28T03:27:17;8.20;;;5.57;;
9160;SDS011;4615;51.340;8.288;2023-05-28T03:29:44;8.00;;;5.55;;
9160;SDS011;4615;51.340;8.288;2023-05-28T03:32:10;8.05;;;5.47;;
9160;SDS011;4615;51.340;8.288;2023-05-28T03:34:37;7.07;;;5.55;;
9160;SDS011;4615;51.340;8.288;2023-05-28T03:37:03;7.63;;;5.97;;
9160;SDS011;4615;51.340;8.288;2023-05-28T03:39:30;7.70;;;6.10;;
9160;SDS011;4615;51.340;8.288;2023-05-28T03:41:58;8.02;;;5.72;;
9160;SDS011;4615;51.340;8.288;2023-05-28T03:44:25;7.30;;;5.53;;
9160;SDS011;4615;51.340;8.288;2023-05-28T03:46:51;6.28;;;5.18;;
9160;SDS011;4615;51.340;8.288;2023-05-28T03:49:17;7.82;;;5.97;;
9160;SDS011;4615;51.340;8.288;2023-05-28T03:51:44;7.25;;;5.63;;
9160;SDS011;4615;51.340;8.288;2023-05-28T03:54:10;7.28;;;5.93;;
9160;SDS011;4615;51.340;8.288;2023-05-28T03:56:37;6.83;;;5.23;;
9160;SDS011;4615;51.340;8.288;2023-05-28T03:59:04;6.30;;;5.30;;
9160;SDS011;4615;51.340;8.288;2023-05-28T04:01:31;7.70;;;5.07;;
9160;SDS011;4615;51.340;8.288;2023-05-28T04:03:59;6.03;;;5.23;;
9160;SDS011;4615;51.340;8.288;2023-05-28T04:06:26;8.02;;;5.47;;
9160;SDS011;4615;51.340;8.288;2023-05-28T04:08:52;6.35;;;5.40;;
9160;SDS011;4615;51.340;8.288;2023-05-28T04:11:18;6.95;;;5.45;;
9160;SDS011;4615;51.340;8.288;2023-05-28T04:13:46;8.77;;;5.50;;
9160;SDS011;4615;51.340;8.288;2023-05-28T04:16:14;6.88;;;5.60;;
9160;SDS011;4615;51.340;8.288;2023-05-28T04:18:41;7.78;;;5.88;;
9160;SDS011;4615;51.340;8.288;2023-05-28T04:21:07;7.10;;;4.90;;
9160;SDS011;4615;51.340;8.288;2023-05-28T04:23:33;5.57;;;4.97;;
9160;SDS011;4615;51.340;8.288;2023-05-28T04:26:00;7.35;;;5.22;;
9160;SDS011;4615;51.340;8.288;2023-05-28T04:28:26;7.47;;;5.53;;
9160;SDS011;4615;51.340;8.288;2023-05-28T04:30:53;7.47;;;5.13;;
9160;SDS011;4615;51.340;8.288;2023-05-28T04:33:21;6.68;;;5.32;;
9160;SDS011;4615;51.340;8.288;2023-05-28T04:35:47;7.18;;;5.70;;
9160;SDS011;4615;51.340;8.288;2023-05-28T04:38:13;5.63;;;5.03;;
9160;SDS011;4615;51.340;8.288;2023-05-28T04:40:40;7.10;;;5.47;;
9160;SDS011;4615;51.340;8.288;2023-05-28T04:43:07;6.32;;;5.40;;
9160;SDS011;4615;51.340;8.288;2023-05-28T04:45:33;6.83;;;5.67;;
9160;SDS011;4615;51.340;8.288;2023-05-28T04:48:00;6.65;;;5.50;;
9160;SDS011;4615;51.340;8.288;2023-05-28T04:50:28;7.65;;;5.43;;
9160;SDS011;4615;51.340;8.288;2023-05-28T04:52:55;7.45;;;5.10;;
9160;SDS011;4615;51.340;8.288;2023-05-28T04:55:21;7.82;;;5.40;;
9160;SDS011;4615;51.340;8.288;2023-05-28T04:57:48;7.65;;;5.65;;
9160;SDS011;4615;51.340;8.288;2023-05-28T05:00:15;6.07;;;5.10;;
9160;SDS011;4615;51.340;8.288;2023-05-28T05:02:41;5.95;;;5.00;;
9160;SDS011;4615;51.340;8.288;2023-05-28T05:05:08;7.93;;;5.50;;
9160;SDS011;4615;51.340;8.288;2023-05-28T05:07:35;5.95;;;5.07;;
9160;SDS011;4615;51.340;8.288;2023-05-28T05:10:05;8.48;;;5.82;;
9160;SDS011;4615;51.340;8.288;2023-05-28T05:12:32;6.78;;;5.10;;
9160;SDS011;4615;51.340;8.288;2023-05-28T05:14:58;7.25;;;4.90;;
9160;SDS011;4615;51.340;8.288;2023-05-28T05:17:24;7.55;;;5.18;;
9160;SDS011;4615;51.340;8.288;2023-05-28T05:19:51;7.22;;;5.30;;
9160;SDS011;4615;51.340;8.288;2023-05-28T05:22:17;6.28;;;4.93;;
9160;SDS011;4615;51.340;8.288;2023-05-28T05:24:45;7.13;;;5.40;;
9160;SDS011;4615;51.340;8.288;2023-05-28T05:27:14;6.03;;;4.82;;
9160;SDS011;4615;51.340;8.288;2023-05-28T05:29:40;6.70;;;5.10;;
9160;SDS011;4615;51.340;8.288;2023-05-28T05:32:07;7.10;;;5.30;;
9160;SDS011;4615;51.340;8.288;2023-05-28T05:34:34;7.28;;;5.40;;
9160;SDS011;4615;51.340;8.288;2023-05-28T05:37:00;6.70;;;5.50;;
9160;SDS011;4615;51.340;8.288;2023-05-28T05:39:27;6.45;;;5.75;;
9160;SDS011;4615;51.340;8.288;2023-05-28T05:41:55;5.97;;;5.05;;
9160;SDS011;4615;51.340;8.288;2023-05-28T05:44:21;6.20;;;5.10;;
9160;SDS011;4615;51.340;8.288;2023-05-28T05:46:47;8.02;;;5.50;;
9160;SDS011;4615;51.340;8.288;2023-05-28T05:49:14;6.30;;;5.10;;
9160;SDS011;4615;51.340;8.288;2023-05-28T05:51:40;6.68;;;5.28;;
9160;SDS011;4615;51.340;8.288;2023-05-28T05:54:06;7.43;;;5.57;;
9160;SDS011;4615;51.340;8.288;2023-05-28T05:56:33;7.18;;;5.18;;
9160;SDS011;4615;51.340;8.288;2023-05-28T05:59:01;6.47;;;4.77;;
9160;SDS011;4615;51.340;8.288;2023-05-28T06:01:27;8.27;;;5.47;;
9160;SDS011;4615;51.340;8.288;2023-05-28T06:03:55;7.15;;;5.25;;
9160;SDS011;4615;51.340;8.288;2023-05-28T06:06:21;7.38;;;5.10;;
9160;SDS011;4615;51.340;8.288;2023-05-28T06:08:48;7.68;;;5.07;;
9160;SDS011;4615;51.340;8.288;2023-05-28T06:11:14;7.97;;;4.97;;
9160;SDS011;4615;51.340;8.288;2023-05-28T06:13:40;5.85;;;4.75;;
9160;SDS011;4615;51.340;8.288;2023-05-28T06:16:08;6.80;;;5.20;;
9160;SDS011;4615;51.340;8.288;2023-05-28T06:18:36;7.00;;;5.17;;
9160;SDS011;4615;51.340;8.288;2023-05-28T06:21:02;6.43;;;4.95;;
9160;SDS011;4615;51.340;8.288;2023-05-28T06:23:29;8.60;;;5.00;;
9160;SDS011;4615;51.340;8.288;2023-05-28T06:25:55;7.35;;;4.78;;
9160;SDS011;4615;51.340;8.288;2023-05-28T06:28:22;6.32;;;4.80;;
9160;SDS011;4615;51.340;8.288;2023-05-28T06:30:48;7.15;;;4.63;;
9160;SDS011;4615;51.340;8.288;2023-05-28T06:33:16;6.10;;;5.10;;
9160;SDS011;4615;51.340;8.288;2023-05-28T06:35:42;6.47;;;4.65;;
9160;SDS011;4615;51.340;8.288;2023-05-28T06:38:09;6.82;;;4.72;;
9160;SDS011;4615;51.340;8.288;2023-05-28T06:40:35;6.60;;;4.68;;
9160;SDS011;4615;51.340;8.288;2023-05-28T06:43:02;6.30;;;4.50;;
9160;SDS011;4615;51.340;8.288;2023-05-28T06:45:28;6.32;;;4.60;;
9160;SDS011;4615;51.340;8.288;2023-05-28T06:47:57;7.15;;;4.40;;
9160;SDS011;4615;51.340;8.288;2023-05-28T06:50:25;7.03;;;4.68;;
9160;SDS011;4615;51.340;8.288;2023-05-28T06:52:52;6.32;;;4.32;;
9160;SDS011;4615;51.340;8.288;2023-05-28T06:55:18;6.53;;;4.22;;
9160;SDS011;4615;51.340;8.288;2023-05-28T06:57:44;6.88;;;4.65;;
9160;SDS011;4615;51.340;8.288;2023-05-28T07:00:11;6.50;;;4.32;;
9160;SDS011;4615;51.340;8.288;2023-05-28T07:02:41;6.65;;;4.20;;
9160;SDS011;4615;51.340;8.288;2023-05-28T07:05:08;5.55;;;4.20;;
9160;SDS011;4615;51.340;8.288;2023-05-28T07:07:36;5.95;;;4.00;;
9160;SDS011;4615;51.340;8.288;2023-05-28T07:10:03;5.88;;;4.20;;
9160;SDS011;4615;51.340;8.288;2023-05-28T07:12:29;6.45;;;4.10;;
9160;SDS011;4615;51.340;8.288;2023-05-28T07:14:56;7.07;;;4.55;;
9160;SDS011;4615;51.340;8.288;2023-05-28T07:17:22;5.85;;;4.40;;
9160;SDS011;4615;51.340;8.288;2023-05-28T07:19:49;6.35;;;4.03;;
9160;SDS011;4615;51.340;8.288;2023-05-28T07:22:15;6.15;;;3.88;;
9160;SDS011;4615;51.340;8.288;2023-05-28T07:24:43;6.30;;;3.72;;
9160;SDS011;4615;51.340;8.288;2023-05-28T07:27:09;5.10;;;3.72;;
9160;SDS011;4615;51.340;8.288;2023-05-28T07:29:35;6.35;;;3.85;;
9160;SDS011;4615;51.340;8.288;2023-05-28T07:32:02;4.82;;;3.58;;
9160;SDS011;4615;51.340;8.288;2023-05-28T07:34:28;6.68;;;3.95;;
9160;SDS011;4615;51.340;8.288;2023-05-28T07:36:55;6.45;;;3.97;;
9160;SDS011;4615;51.340;8.288;2023-05-28T07:39:21;5.70;;;3.70;;
9160;SDS011;4615;51.340;8.288;2023-05-28T07:41:49;5.13;;;3.70;;
9160;SDS011;4615;51.340;8.288;2023-05-28T07:44:16;5.88;;;3.97;;
9160;SDS011;4615;51.340;8.288;2023-05-28T07:46:42;8.55;;;3.75;;
9160;SDS011;4615;51.340;8.288;2023-05-28T07:49:08;6.40;;;3.70;;
9160;SDS011;4615;51.340;8.288;2023-05-28T07:51:35;5.22;;;3.95;;
9160;SDS011;4615;51.340;8.288;2023-05-28T07:54:01;4.90;;;3.40;;
9160;SDS011;4615;51.340;8.288;2023-05-28T07:56:28;4.68;;;3.55;;
9160;SDS011;4615;51.340;8.288;2023-05-28T07:58:56;5.65;;;3.40;;
9160;SDS011;4615;51.340;8.288;2023-05-28T08:01:22;5.63;;;3.55;;
9160;SDS011;4615;51.340;8.288;2023-05-28T08:03:49;7.15;;;3.67;;
9160;SDS011;4615;51.340;8.288;2023-05-28T08:06:19;4.95;;;3.72;;
9160;SDS011;4615;51.340;8.288;2023-05-28T08:08:45;4.87;;;3.50;;
9160;SDS011;4615;51.340;8.288;2023-05-28T08:11:12;4.78;;;3.40;;
9160;SDS011;4615;51.340;8.288;2023-05-28T08:13:39;5.83;;;3.70;;
9160;SDS011;4615;51.340;8.288;2023-05-28T08:16:07;5.00;;;3.65;;
9160;SDS011;4615;51.340;8.288;2023-05-28T08:18:36;5.38;;;3.28;;
9160;SDS011;4615;51.340;8.288;2023-05-28T08:21:04;5.30;;;3.20;;
9160;SDS011;4615;51.340;8.288;2023-05-28T08:23:30;6.47;;;3.47;;
9160;SDS011;4615;51.340;8.288;2023-05-28T08:25:59;6.05;;;3.42;;
9160;SDS011;4615;51.340;8.288;2023-05-28T08:28:26;5.25;;;3.30;;
9160;SDS011;4615;51.340;8.288;2023-05-28T08:30:52;4.97;;;3.15;;
9160;SDS011;4615;51.340;8.288;2023-05-28T08:33:20;4.22;;;3.10;;
9160;SDS011;4615;51.340;8.288;2023-05-28T08:35:46;4.72;;;3.17;;
9160;SDS011;4615;51.340;8.288;2023-05-28T08:38:13;5.68;;;3.17;;
9160;SDS011;4615;51.340;8.288;2023-05-28T08:40:40;5.28;;;3.30;;
9160;SDS011;4615;51.340;8.288;2023-05-28T08:43:07;4.68;;;3.03;;
9160;SDS011;4615;51.340;8.288;2023-05-28T08:45:34;5.10;;;3.40;;
9160;SDS011;4615;51.340;8.288;2023-05-28T08:48:02;6.10;;;3.60;;
9160;SDS011;4615;51.340;8.288;2023-05-28T08:50:32;4.72;;;3.53;;
9160;SDS011;4615;51.340;8.288;2023-05-28T08:53:00;5.93;;;3.53;;
9160;SDS011;4615;51.340;8.288;2023-05-28T08:55:27;5.88;;;3.63;;
9160;SDS011;4615;51.340;8.288;2023-05-28T08:57:54;4.43;;;3.20;;
9160;SDS011;4615;51.340;8.288;2023-05-28T09:00:21;6.13;;;3.25;;
9160;SDS011;4615;51.340;8.288;2023-05-28T09:02:48;4.80;;;3.30;;
9160;SDS011;4615;51.340;8.288;2023-05-28T09:05:15;4.20;;;3.13;;
9160;SDS011;4615;51.340;8.288;2023-05-28T09:07:43;4.57;;;3.38;;
9160;SDS011;4615;51.340;8.288;2023-05-28T09:10:10;5.32;;;3.42;;
9160;SDS011;4615;51.340;8.288;2023-05-28T09:12:36;6.32;;;3.35;;
9160;SDS011;4615;51.340;8.288;2023-05-28T09:15:07;5.32;;;3.05;;
9160;SDS011;4615;51.340;8.288;2023-05-28T09:17:33;4.70;;;2.85;;
9160;SDS011;4615;51.340;8.288;2023-05-28T09:20:00;4.50;;;3.05;;
9160;SDS011;4615;51.340;8.288;2023-05-28T09:22:29;5.70;;;3.10;;
9160;SDS011;4615;51.340;8.288;2023-05-28T09:24:57;4.55;;;3.15;;
9160;SDS011;4615;51.340;8.288;2023-05-28T09:27:26;4.43;;;2.97;;
9160;SDS011;4615;51.340;8.288;2023-05-28T09:29:53;5.30;;;3.47;;
9160;SDS011;4615;51.340;8.288;2023-05-28T09:32:19;3.95;;;3.17;;
9160;SDS011;4615;51.340;8.288;2023-05-28T09:34:48;3.40;;;2.88;;
9160;SDS011;4615;51.340;8.288;2023-05-28T09:37:15;4.00;;;3.20;;
9160;SDS011;4615;51.340;8.288;2023-05-28T09:39:42;4.22;;;3.00;;
9160;SDS011;4615;51.340;8.288;2023-05-28T09:42:09;3.75;;;3.15;;
9160;SDS011;4615;51.340;8.288;2023-05-28T09:44:36;6.50;;;3.10;;
9160;SDS011;4615;51.340;8.288;2023-05-28T09:47:11;4.15;;;3.05;;
9160;SDS011;4615;51.340;8.288;2023-05-28T09:49:37;4.63;;;3.23;;
9160;SDS011;4615;51.340;8.288;2023-05-28T09:52:06;4.18;;;2.92;;
9160;SDS011;4615;51.340;8.288;2023-05-28T09:54:34;6.00;;;2.97;;
9160;SDS011;4615;51.340;8.288;2023-05-28T09:57:02;4.50;;;2.97;;
9160;SDS011;4615;51.340;8.288;2023-05-28T09:59:31;4.05;;;3.10;;
9160;SDS011;4615;51.340;8.288;2023-05-28T10:01:59;4.55;;;3.17;;
9160;SDS011;4615;51.340;8.288;2023-05-28T10:04:29;6.05;;;2.92;;
9160;SDS011;4615;51.340;8.288;2023-05-28T10:06:57;4.28;;;3.25;;
9160;SDS011;4615;51.340;8.288;2023-05-28T10:09:24;4.57;;;3.13;;
9160;SDS011;4615;51.340;8.288;2023-05-28T10:11:52;4.75;;;3.20;;
9160;SDS011;4615;51.340;8.288;2023-05-28T10:14:21;5.97;;;3.25;;
9160;SDS011;4615;51.340;8.288;2023-05-28T10:16:48;4.43;;;3.20;;
9160;SDS011;4615;51.340;8.288;2023-05-28T10:19:15;4.78;;;3.20;;
9160;SDS011;4615;51.340;8.288;2023-05-28T10:21:42;4.68;;;3.05;;
9160;SDS011;4615;51.340;8.288;2023-05-28T10:24:08;3.83;;;2.87;;
9160;SDS011;4615;51.340;8.288;2023-05-28T10:26:35;3.63;;;3.10;;
9160;SDS011;4615;51.340;8.288;2023-05-28T10:29:03;4.38;;;3.00;;
9160;SDS011;4615;51.340;8.288;2023-05-28T10:31:32;3.78;;;2.92;;
9160;SDS011;4615;51.340;8.288;2023-05-28T10:33:59;3.55;;;3.00;;
9160;SDS011;4615;51.340;8.288;2023-05-28T10:36:26;4.15;;;3.22;;
9160;SDS011;4615;51.340;8.288;2023-05-28T10:38:56;3.87;;;3.00;;
9160;SDS011;4615;51.340;8.288;2023-05-28T10:41:23;3.95;;;2.90;;
9160;SDS011;4615;51.340;8.288;2023-05-28T10:43:50;4.10;;;3.22;;
9160;SDS011;4615;51.340;8.288;2023-05-28T10:46:17;3.85;;;2.92;;
9160;SDS011;4615;51.340;8.288;2023-05-28T10:51:43;4.65;;;3.05;;
9160;SDS011;4615;51.340;8.288;2023-05-28T10:54:16;4.20;;;3.20;;
9160;SDS011;4615;51.340;8.288;2023-05-28T11:02:22;4.78;;;3.00;;
9160;SDS011;4615;51.340;8.288;2023-05-28T11:04:50;4.65;;;2.80;;
9160;SDS011;4615;51.340;8.288;2023-05-28T11:07:18;4.80;;;3.05;;
9160;SDS011;4615;51.340;8.288;2023-05-28T11:09:46;3.30;;;2.78;;
9160;SDS011;4615;51.340;8.288;2023-05-28T11:12:13;4.50;;;3.20;;
9160;SDS011;4615;51.340;8.288;2023-05-28T11:14:40;3.60;;;3.03;;
9160;SDS011;4615;51.340;8.288;2023-05-28T11:17:09;3.90;;;2.78;;
9160;SDS011;4615;51.340;8.288;2023-05-28T11:19:39;4.13;;;3.00;;
9160;SDS011;4615;51.340;8.288;2023-05-28T11:22:06;3.92;;;2.90;;
9160;SDS011;4615;51.340;8.288;2023-05-28T11:27:28;4.35;;;2.80;;
9160;SDS011;4615;51.340;8.288;2023-05-28T11:29:56;3.60;;;2.70;;
9160;SDS011;4615;51.340;8.288;2023-05-28T11:32:23;3.83;;;2.67;;
9160;SDS011;4615;51.340;8.288;2023-05-28T11:34:53;3.00;;;2.70;;
9160;SDS011;4615;51.340;8.288;2023-05-28T11:37:23;3.27;;;2.90;;
9160;SDS011;4615;51.340;8.288;2023-05-28T11:39:51;3.63;;;2.95;;
9160;SDS011;4615;51.340;8.288;2023-05-28T11:42:18;4.47;;;2.90;;
9160;SDS011;4615;51.340;8.288;2023-05-28T11:44:46;4.13;;;3.03;;
9160;SDS011;4615;51.340;8.288;2023-05-28T11:47:13;4.18;;;3.13;;
9160;SDS011;4615;51.340;8.288;2023-05-28T11:49:40;4.32;;;2.97;;
9160;SDS011;4615;51.340;8.288;2023-05-28T11:52:09;4.17;;;3.00;;
9160;SDS011;4615;51.340;8.288;2023-05-28T11:54:36;4.18;;;2.72;;
9160;SDS011;4615;51.340;8.288;2023-05-28T11:57:02;3.72;;;2.75;;
9160;SDS011;4615;51.340;8.288;2023-05-28T11:59:29;4.00;;;2.95;;
9160;SDS011;4615;51.340;8.288;2023-05-28T12:02:09;4.30;;;2.90;;
9160;SDS011;4615;51.340;8.288;2023-05-28T12:04:35;3.75;;;2.97;;
9160;SDS011;4615;51.340;8.288;2023-05-28T12:07:02;4.33;;;3.03;;
9160;SDS011;4615;51.340;8.288;2023-05-28T12:09:28;4.97;;;3.20;;
9160;SDS011;4615;51.340;8.288;2023-05-28T12:12:04;3.13;;;2.83;;
9160;SDS011;4615;51.340;8.288;2023-05-28T12:14:31;4.15;;;2.97;;
9160;SDS011;4615;51.340;8.288;2023-05-28T12:17:03;3.20;;;2.90;;
9160;SDS011;4615;51.340;8.288;2023-05-28T12:19:32;3.35;;;2.92;;
9160;SDS011;4615;51.340;8.288;2023-05-28T12:21:59;3.38;;;2.80;;
9160;SDS011;4615;51.340;8.288;2023-05-28T12:24:26;3.38;;;2.90;;
9160;SDS011;4615;51.340;8.288;2023-05-28T12:26:53;3.35;;;2.83;;
9160;SDS011;4615;51.340;8.288;2023-05-28T12:29:19;3.88;;;3.00;;
9160;SDS011;4615;51.340;8.288;2023-05-28T12:31:46;2.80;;;2.60;;
9160;SDS011;4615;51.340;8.288;2023-05-28T12:34:12;3.92;;;2.72;;
9160;SDS011;4615;51.340;8.288;2023-05-28T12:36:40;3.70;;;2.93;;
9160;SDS011;4615;51.340;8.288;2023-05-28T12:39:06;3.50;;;2.97;;
9160;SDS011;4615;51.340;8.288;2023-05-28T12:41:33;3.77;;;2.60;;
9160;SDS011;4615;51.340;8.288;2023-05-28T12:44:00;3.28;;;2.70;;
9160;SDS011;4615;51.340;8.288;2023-05-28T12:46:26;3.20;;;2.85;;
9160;SDS011;4615;51.340;8.288;2023-05-28T12:48:53;3.05;;;2.75;;
9160;SDS011;4615;51.340;8.288;2023-05-28T12:51:19;3.80;;;2.97;;
9160;SDS011;4615;51.340;8.288;2023-05-28T12:53:47;4.38;;;2.90;;
9160;SDS011;4615;51.340;8.288;2023-05-28T12:56:13;3.80;;;2.90;;
9160;SDS011;4615;51.340;8.288;2023-05-28T12:58:39;3.60;;;2.90;;
9160;SDS011;4615;51.340;8.288;2023-05-28T13:01:06;3.70;;;2.90;;
9160;SDS011;4615;51.340;8.288;2023-05-28T13:03:32;3.10;;;2.80;;
9160;SDS011;4615;51.340;8.288;2023-05-28T13:05:59;4.93;;;2.72;;
9160;SDS011;4615;51.340;8.288;2023-05-28T13:08:25;4.05;;;2.97;;
9160;SDS011;4615;51.340;8.288;2023-05-28T13:10:53;4.15;;;3.08;;
9160;SDS011;4615;51.340;8.288;2023-05-28T13:13:19;4.37;;;2.97;;
9160;SDS011;4615;51.340;8.288;2023-05-28T13:15:46;4.15;;;2.90;;
9160;SDS011;4615;51.340;8.288;2023-05-28T13:18:12;3.90;;;3.00;;
9160;SDS011;4615;51.340;8.288;2023-05-28T13:20:39;3.93;;;2.83;;
9160;SDS011;4615;51.340;8.288;2023-05-28T13:23:06;3.35;;;2.97;;
9160;SDS011;4615;51.340;8.288;2023-05-28T13:25:32;3.40;;;2.80;;
9160;SDS011;4615;51.340;8.288;2023-05-28T13:28:00;3.13;;;2.80;;
9160;SDS011;4615;51.340;8.288;2023-05-28T13:30:27;3.75;;;2.75;;
9160;SDS011;4615;51.340;8.288;2023-05-28T13:32:53;4.13;;;2.90;;
9160;SDS011;4615;51.340;8.288;2023-05-28T13:35:20;4.68;;;2.85;;
9160;SDS011;4615;51.340;8.288;2023-05-28T13:37:46;4.03;;;2.60;;
9160;SDS011;4615;51.340;8.288;2023-05-28T13:40:13;4.28;;;2.70;;
9160;SDS011;4615;51.340;8.288;2023-05-28T13:42:39;4.97;;;2.70;;
9160;SDS011;4615;51.340;8.288;2023-05-28T13:45:08;4.32;;;2.90;;
9160;SDS011;4615;51.340;8.288;2023-05-28T13:47:35;3.97;;;2.80;;
9160;SDS011;4615;51.340;8.288;2023-05-28T13:50:02;3.72;;;2.88;;
9160;SDS011;4615;51.340;8.288;2023-05-28T13:52:29;4.38;;;2.80;;
9160;SDS011;4615;51.340;8.288;2023-05-28T13:54:55;3.92;;;2.70;;
9160;SDS011;4615;51.340;8.288;2023-05-28T13:57:22;3.65;;;2.80;;
9160;SDS011;4615;51.340;8.288;2023-05-28T13:59:48;3.13;;;2.65;;
9160;SDS011;4615;51.340;8.288;2023-05-28T14:02:16;3.92;;;2.90;;
9160;SDS011;4615;51.340;8.288;2023-05-28T14:04:43;3.53;;;2.55;;
9160;SDS011;4615;51.340;8.288;2023-05-28T14:07:09;4.15;;;2.72;;
9160;SDS011;4615;51.340;8.288;2023-05-28T14:09:36;4.53;;;2.53;;
9160;SDS011;4615;51.340;8.288;2023-05-28T14:12:03;4.30;;;2.90;;
9160;SDS011;4615;51.340;8.288;2023-05-28T14:14:30;3.80;;;2.90;;
9160;SDS011;4615;51.340;8.288;2023-05-28T14:16:57;2.85;;;2.40;;
9160;SDS011;4615;51.340;8.288;2023-05-28T14:19:24;3.78;;;2.70;;
9160;SDS011;4615;51.340;8.288;2023-05-28T14:21:51;3.80;;;2.85;;
9160;SDS011;4615;51.340;8.288;2023-05-28T14:24:17;4.75;;;2.80;;
9160;SDS011;4615;51.340;8.288;2023-05-28T14:26:44;3.90;;;2.95;;
9160;SDS011;4615;51.340;8.288;2023-05-28T14:29:10;4.78;;;2.75;;
9160;SDS011;4615;51.340;8.288;2023-05-28T14:31:37;3.70;;;2.47;;
9160;SDS011;4615;51.340;8.288;2023-05-28T14:34:04;6.38;;;3.08;;
9160;SDS011;4615;51.340;8.288;2023-05-28T14:36:31;4.80;;;2.65;;
9160;SDS011;4615;51.340;8.288;2023-05-28T14:38:58;4.70;;;2.83;;
9160;SDS011;4615;51.340;8.288;2023-05-28T14:41:24;3.13;;;2.60;;
9160;SDS011;4615;51.340;8.288;2023-05-28T14:43:51;3.80;;;2.40;;
9160;SDS011;4615;51.340;8.288;2023-05-28T14:46:17;4.28;;;2.70;;
9160;SDS011;4615;51.340;8.288;2023-05-28T14:48:44;3.38;;;2.70;;
9160;SDS011;4615;51.340;8.288;2023-05-28T14:51:10;4.43;;;2.80;;
9160;SDS011;4615;51.340;8.288;2023-05-28T14:53:38;3.00;;;2.53;;
9160;SDS011;4615;51.340;8.288;2023-05-28T14:56:04;3.30;;;2.90;;
9160;SDS011;4615;51.340;8.288;2023-05-28T14:58:31;3.88;;;2.63;;
9160;SDS011;4615;51.340;8.288;2023-05-28T15:00:57;4.25;;;2.72;;
9160;SDS011;4615;51.340;8.288;2023-05-28T15:03:27;3.70;;;2.70;;
9160;SDS011;4615;51.340;8.288;2023-05-28T15:05:53;4.15;;;2.90;;
9160;SDS011;4615;51.340;8.288;2023-05-28T15:08:20;4.10;;;2.60;;
9160;SDS011;4615;51.340;8.288;2023-05-28T15:10:48;3.28;;;2.60;;
9160;SDS011;4615;51.340;8.288;2023-05-28T15:13:15;4.18;;;2.55;;
9160;SDS011;4615;51.340;8.288;2023-05-28T15:15:41;5.63;;;2.90;;
9160;SDS011;4615;51.340;8.288;2023-05-28T15:18:08;4.93;;;2.92;;
9160;SDS011;4615;51.340;8.288;2023-05-28T15:20:34;3.45;;;2.67;;
9160;SDS011;4615;51.340;8.288;2023-05-28T15:23:01;4.17;;;2.77;;
9160;SDS011;4615;51.340;8.288;2023-05-28T15:25:30;4.05;;;2.72;;